createdAt,value
2023-05-21T00:06:39.715Z,13.10
2023-05-21T00:17:06.015Z,12.80
2023-05-21T00:27:31.941Z,12.80
2023-05-21T00:37:57.622Z,12.50
2023-05-21T00:48:24.968Z,18.70
2023-05-21T00:58:52.028Z,13.00
2023-05-21T01:09:18.720Z,12.40
2023-05-21T01:19:45.899Z,14.10
2023-05-21T01:30:14.495Z,12.40
2023-05-21T01:40:47.075Z,14.00
2023-05-21T01:51:13.838Z,14.30
2023-05-21T02:01:39.667Z,14.20
2023-05-21T02:12:06.048Z,13.70
2023-05-21T02:22:31.714Z,14.10
2023-05-21T02:32:59.272Z,15.00
2023-05-21T02:43:25.564Z,14.00
2023-05-21T02:53:51.299Z,14.10
2023-05-21T03:04:18.559Z,14.40
2023-05-21T03:14:46.492Z,18.00
2023-05-21T03:25:14.116Z,15.40
2023-05-21T03:35:40.518Z,13.40
2023-05-21T03:46:06.297Z,16.90
2023-05-21T03:56:32.147Z,15.40
2023-05-21T04:07:00.276Z,14.30
2023-05-21T04:17:27.095Z,15.50
2023-05-21T04:38:19.966Z,13.40
2023-05-21T04:48:45.414Z,15.50
2023-05-21T04:59:12.131Z,12.20
2023-05-21T05:09:37.905Z,11.80
2023-05-21T05:20:05.286Z,14.20
2023-05-21T05:30:31.015Z,11.10
2023-05-21T05:40:56.630Z,11.50
2023-05-21T05:51:22.742Z,12.90
2023-05-21T06:01:49.000Z,11.40
2023-05-21T06:12:16.282Z,10.90
2023-05-21T06:22:42.009Z,11.50
2023-05-21T06:33:08.210Z,10.00
2023-05-21T06:43:33.730Z,9.40
2023-05-21T06:53:59.612Z,9.20
2023-05-21T07:04:25.809Z,8.50
2023-05-21T07:14:51.554Z,8.10
2023-05-21T07:25:18.082Z,8.60
2023-05-21T07:35:43.580Z,7.50
2023-05-21T07:46:09.539Z,7.30
2023-05-21T07:56:35.145Z,6.90
2023-05-21T08:07:00.944Z,7.30
2023-05-21T08:17:28.876Z,6.50
2023-05-21T08:27:54.588Z,5.80
2023-05-21T08:38:20.412Z,6.00
2023-05-21T08:59:11.720Z,4.90
2023-05-21T09:09:43.117Z,4.30
2023-05-21T09:20:16.377Z,4.10
2023-05-21T09:30:47.388Z,4.60
2023-05-21T09:41:13.764Z,4.00
2023-05-21T10:02:16.346Z,4.20
2023-05-21T10:12:46.072Z,3.30
2023-05-21T10:23:14.206Z,3.60
2023-05-21T10:33:42.293Z,4.20
2023-05-21T10:44:17.491Z,3.40
2023-05-21T10:54:58.546Z,3.30
2023-05-21T11:16:14.915Z,3.10
2023-05-21T11:27:06.977Z,3.30
2023-05-21T11:37:40.713Z,2.90
2023-05-21T11:48:07.690Z,3.30
2023-05-21T11:58:34.728Z,3.30
2023-05-21T12:09:00.831Z,2.80
2023-05-21T12:19:26.777Z,2.90
2023-05-21T12:29:54.255Z,3.50
2023-05-21T12:40:21.050Z,3.10
2023-05-21T12:50:47.055Z,3.00
2023-05-21T13:01:14.635Z,2.90
2023-05-21T13:11:40.590Z,3.40
2023-05-21T13:32:31.426Z,3.70
2023-05-21T13:53:21.420Z,3.70
2023-05-21T14:03:47.333Z,3.00
2023-05-21T14:14:19.159Z,3.80
2023-05-21T14:24:45.017Z,3.70
2023-05-21T14:45:55.083Z,3.20
2023-05-21T14:56:23.841Z,3.70
2023-05-21T15:06:49.750Z,3.70
2023-05-21T15:27:39.666Z,4.20
2023-05-21T15:38:05.751Z,4.00
2023-05-21T15:48:31.652Z,4.20
2023-05-21T15:59:00.066Z,3.60
2023-05-21T16:09:26.017Z,3.20
2023-05-21T16:19:51.880Z,3.90
2023-05-21T16:30:18.210Z,4.20
2023-05-21T16:51:30.268Z,3.40
2023-05-21T17:01:56.505Z,3.50
2023-05-21T17:12:22.652Z,3.80
2023-05-21T17:22:48.758Z,3.70
2023-05-21T17:33:15.002Z,3.40
2023-05-21T17:43:41.433Z,3.70
2023-05-21T17:54:08.247Z,3.30
2023-05-21T18:04:34.136Z,3.50
2023-05-21T18:15:00.005Z,3.50
2023-05-21T18:35:51.582Z,4.10
2023-05-21T18:46:17.464Z,4.30
2023-05-21T18:56:43.476Z,3.80
2023-05-21T19:07:09.286Z,3.90
2023-05-21T19:17:36.525Z,4.40
2023-05-21T19:28:02.735Z,3.60
2023-05-21T19:38:29.687Z,3.90
2023-05-21T19:48:55.600Z,4.00
2023-05-21T19:59:21.500Z,3.60
2023-05-21T20:09:47.622Z,4.00
2023-05-21T20:20:14.550Z,3.70
2023-05-21T20:30:57.619Z,4.10
2023-05-21T20:41:25.972Z,3.70
2023-05-21T20:51:52.177Z,5.20
2023-05-21T21:02:20.259Z,3.90
2023-05-21T21:12:46.079Z,4.00
2023-05-21T21:23:11.905Z,4.30
2023-05-21T21:33:37.497Z,3.80
2023-05-21T21:44:03.599Z,3.60
2023-05-21T21:54:29.721Z,3.70
2023-05-21T22:04:56.147Z,3.30
2023-05-21T22:15:25.131Z,4.20
2023-05-21T22:25:50.848Z,3.40
2023-05-21T22:36:17.023Z,3.30
2023-05-21T22:46:44.049Z,3.40
2023-05-21T22:57:10.020Z,3.40
2023-05-21T23:07:35.701Z,3.60
2023-05-21T23:18:04.060Z,3.60
2023-05-21T23:28:29.866Z,3.50
2023-05-21T23:38:56.196Z,3.90
2023-05-21T23:49:22.123Z,3.40
2023-05-21T23:59:48.136Z,3.50
